createdAt,value
2023-03-25T00:00:16.496Z,2.30
2023-03-25T00:05:57.159Z,2.03
2023-03-25T00:11:28.582Z,2.27
2023-03-25T00:13:56.045Z,1.83
2023-03-25T00:16:23.485Z,1.90
2023-03-25T00:18:51.172Z,2.10
2023-03-25T00:21:20.771Z,2.40
2023-03-25T00:23:48.185Z,2.20
2023-03-25T00:26:15.830Z,2.30
2023-03-25T00:28:43.321Z,2.37
2023-03-25T00:31:13.420Z,2.10
2023-03-25T00:33:42.488Z,2.23
2023-03-25T00:39:06.777Z,2.37
2023-03-25T00:41:35.721Z,2.33
2023-03-25T00:44:04.130Z,2.53
2023-03-25T00:46:33.178Z,2.80
2023-03-25T00:49:01.025Z,2.63
2023-03-25T00:54:27.928Z,3.87
2023-03-25T00:56:56.051Z,3.77
2023-03-25T01:02:26.693Z,3.30
2023-03-25T01:04:54.946Z,3.80
2023-03-25T01:07:22.381Z,3.70
2023-03-25T01:09:51.134Z,3.77
2023-03-25T01:15:17.634Z,3.40
2023-03-25T01:17:45.154Z,3.60
2023-03-25T01:20:12.983Z,3.23
2023-03-25T01:25:44.801Z,3.10
2023-03-25T01:28:12.283Z,2.80
2023-03-25T01:30:39.706Z,2.70
2023-03-25T01:33:07.843Z,2.97
2023-03-25T01:35:35.266Z,2.80
2023-03-25T01:40:53.236Z,2.90
2023-03-25T01:43:20.753Z,2.70
2023-03-25T01:45:49.451Z,2.63
2023-03-25T01:48:20.011Z,2.67
2023-03-25T01:53:46.235Z,2.80
2023-03-25T01:56:18.408Z,3.07
2023-03-25T01:58:46.580Z,2.50
2023-03-25T02:01:15.047Z,2.40
2023-03-25T02:06:44.439Z,2.43
2023-03-25T02:09:14.476Z,2.80
2023-03-25T02:11:43.276Z,2.20
2023-03-25T02:14:12.678Z,2.23
2023-03-25T02:16:47.043Z,2.43
2023-03-25T02:19:33.210Z,2.27
2023-03-25T02:22:20.639Z,2.50
2023-03-25T02:25:04.124Z,2.80
2023-03-25T02:27:45.944Z,2.60
2023-03-25T02:33:47.530Z,2.80
2023-03-25T02:37:00.045Z,3.03
2023-03-25T02:39:33.202Z,3.03
2023-03-25T02:42:12.479Z,2.70
2023-03-25T02:44:42.863Z,2.90
2023-03-25T02:50:15.394Z,4.47
2023-03-25T02:52:45.894Z,3.90
2023-03-25T02:55:16.885Z,4.10
2023-03-25T02:57:47.464Z,4.30
2023-03-25T03:00:18.107Z,4.30
2023-03-25T03:03:11.251Z,4.53
2023-03-25T03:05:41.018Z,4.07
2023-03-25T03:08:22.609Z,3.83
2023-03-25T03:10:54.140Z,3.70
2023-03-25T03:13:29.871Z,4.00
2023-03-25T03:16:03.046Z,4.80
2023-03-25T03:18:42.082Z,4.30
2023-03-25T03:21:13.953Z,4.17
2023-03-25T03:23:50.191Z,4.80
2023-03-25T03:26:26.341Z,5.20
2023-03-25T03:28:59.047Z,4.50
2023-03-25T03:31:49.807Z,4.70
2023-03-25T03:34:22.541Z,4.30
2023-03-25T03:36:51.612Z,3.67
2023-03-25T03:39:21.213Z,3.50
2023-03-25T03:41:59.426Z,3.90
2023-03-25T03:44:31.531Z,3.67
2023-03-25T03:50:06.495Z,3.63
2023-03-25T03:52:38.311Z,3.30
2023-03-25T03:55:10.726Z,3.60
2023-03-25T03:57:41.124Z,3.27
2023-03-25T04:03:15.858Z,3.00
2023-03-25T04:05:45.386Z,3.00
2023-03-25T04:08:38.678Z,3.30
2023-03-25T04:11:09.892Z,2.80
2023-03-25T04:16:39.615Z,3.43
2023-03-25T04:19:09.248Z,2.77
2023-03-25T04:21:36.654Z,3.13
2023-03-25T04:24:04.584Z,3.20
2023-03-25T04:29:20.541Z,3.33
2023-03-25T04:31:49.951Z,3.07
2023-03-25T04:34:20.412Z,3.10
2023-03-25T04:36:49.994Z,3.23
2023-03-25T04:39:18.381Z,2.93
2023-03-25T04:44:45.139Z,3.20
2023-03-25T04:47:14.852Z,3.40
2023-03-25T04:49:44.903Z,3.50
2023-03-25T04:52:12.479Z,3.57
2023-03-25T04:57:38.562Z,3.20
2023-03-25T05:00:10.643Z,3.40
2023-03-25T05:02:38.849Z,3.17
2023-03-25T05:05:08.234Z,3.20
2023-03-25T05:10:40.087Z,3.50
2023-03-25T05:13:08.861Z,3.60
2023-03-25T05:15:39.482Z,3.37
2023-03-25T05:18:21.304Z,3.10
2023-03-25T05:20:51.321Z,3.43
2023-03-25T05:23:19.242Z,2.90
2023-03-25T05:28:45.710Z,3.90
2023-03-25T05:31:13.119Z,3.50
2023-03-25T05:36:31.176Z,4.00
2023-03-25T05:38:59.081Z,3.63
2023-03-25T05:41:32.603Z,4.37
2023-03-25T05:47:01.121Z,3.93
2023-03-25T05:52:24.397Z,3.63
2023-03-25T05:54:51.974Z,3.33
2023-03-25T05:57:19.594Z,3.40
2023-03-25T05:59:48.827Z,3.60
2023-03-25T06:02:17.578Z,3.30
2023-03-25T06:04:46.564Z,3.37
2023-03-25T06:07:19.823Z,3.13
2023-03-25T06:09:49.112Z,3.70
2023-03-25T06:12:19.659Z,3.27
2023-03-25T06:14:47.739Z,3.30
2023-03-25T06:17:18.878Z,3.50
2023-03-25T06:19:49.896Z,4.27
2023-03-25T06:22:17.773Z,4.50
2023-03-25T06:27:52.159Z,4.50
2023-03-25T06:30:21.070Z,4.20
2023-03-25T06:32:50.532Z,4.23
2023-03-25T06:35:19.975Z,4.40
2023-03-25T06:37:48.792Z,4.40
2023-03-25T06:40:53.576Z,4.50
2023-03-25T06:43:23.044Z,4.80
2023-03-25T06:49:24.100Z,4.70
2023-03-25T06:51:54.681Z,4.53
2023-03-25T06:54:22.756Z,4.27
2023-03-25T06:56:50.417Z,3.77
2023-03-25T06:59:19.295Z,4.00
2023-03-25T07:01:46.830Z,3.97
2023-03-25T07:04:14.270Z,3.83
2023-03-25T07:06:41.904Z,3.43
2023-03-25T07:09:09.421Z,4.30
2023-03-25T07:14:33.410Z,3.67
2023-03-25T07:20:04.399Z,3.83
2023-03-25T07:22:31.826Z,4.20
2023-03-25T07:24:59.286Z,4.53
2023-03-25T07:27:27.113Z,3.97
2023-03-25T07:30:04.639Z,4.63
2023-03-25T07:35:34.909Z,4.00
2023-03-25T07:38:02.810Z,4.47
2023-03-25T07:40:32.208Z,4.10
2023-03-25T07:42:59.825Z,4.13
2023-03-25T07:48:59.950Z,4.43
2023-03-25T07:51:27.416Z,4.00
2023-03-25T07:53:55.103Z,4.10
2023-03-25T07:56:32.777Z,3.80
2023-03-25T08:01:57.125Z,4.70
2023-03-25T08:04:25.996Z,4.00
2023-03-25T08:06:53.438Z,4.53
2023-03-25T08:12:22.013Z,4.27
2023-03-25T08:17:52.705Z,4.47
2023-03-25T08:20:21.583Z,4.00
2023-03-25T08:22:49.279Z,4.30
2023-03-25T08:25:16.713Z,4.47
2023-03-25T08:27:44.183Z,4.20
2023-03-25T08:33:11.545Z,4.20
2023-03-25T08:35:40.480Z,4.37
2023-03-25T08:38:08.143Z,4.23
2023-03-25T08:40:36.314Z,4.10
2023-03-25T08:43:05.580Z,5.27
2023-03-25T08:45:34.743Z,4.20
2023-03-25T08:50:58.832Z,4.37
2023-03-25T08:53:26.868Z,4.93
2023-03-25T08:55:55.274Z,4.43
2023-03-25T08:58:23.065Z,4.23
2023-03-25T09:01:15.850Z,4.67
2023-03-25T09:03:43.319Z,3.93
2023-03-25T09:09:15.489Z,4.60
2023-03-25T09:11:42.959Z,4.83
2023-03-25T09:14:10.698Z,5.60
2023-03-25T09:16:38.315Z,6.30
2023-03-25T09:22:08.894Z,6.27
2023-03-25T09:24:38.211Z,6.47
2023-03-25T09:27:22.327Z,6.10
2023-03-25T09:29:49.756Z,6.43
2023-03-25T09:35:19.705Z,6.80
2023-03-25T09:37:52.092Z,6.70
2023-03-25T09:43:31.774Z,7.10
2023-03-25T09:45:59.924Z,6.77
2023-03-25T09:48:31.886Z,7.00
2023-03-25T09:51:01.721Z,7.43
2023-03-25T09:53:33.200Z,7.33
2023-03-25T09:56:01.043Z,7.00
2023-03-25T09:58:37.603Z,6.50
2023-03-25T10:01:16.348Z,6.20
2023-03-25T10:03:52.701Z,5.60
2023-03-25T10:06:20.863Z,5.43
2023-03-25T10:08:57.320Z,5.50
2023-03-25T10:11:31.627Z,5.57
2023-03-25T10:14:23.022Z,5.15
2023-03-25T10:17:00.470Z,5.30
2023-03-25T10:19:38.228Z,4.40
2023-03-25T10:22:09.031Z,5.00
2023-03-25T10:27:37.201Z,5.03
2023-03-25T10:30:11.886Z,5.00
2023-03-25T10:35:41.345Z,4.53
2023-03-25T10:41:27.982Z,4.90
2023-03-25T10:43:55.828Z,5.20
2023-03-25T10:46:28.920Z,4.93
2023-03-25T10:52:00.092Z,5.40
2023-03-25T10:54:31.651Z,5.23
2023-03-25T10:57:00.935Z,5.10
2023-03-25T11:02:27.006Z,5.27
2023-03-25T11:04:57.246Z,5.10
2023-03-25T11:07:30.094Z,5.40
2023-03-25T11:10:10.248Z,5.60
2023-03-25T11:18:16.088Z,5.43
2023-03-25T11:20:47.844Z,5.37
2023-03-25T11:23:22.452Z,5.47
2023-03-25T11:25:50.016Z,5.57
2023-03-25T11:28:21.400Z,6.63
2023-03-25T11:31:13.170Z,8.70
2023-03-25T11:36:52.569Z,6.73
2023-03-25T11:39:28.470Z,8.07
2023-03-25T11:41:55.932Z,6.57
2023-03-25T11:44:25.189Z,5.80
2023-03-25T11:46:55.434Z,5.33
2023-03-25T11:52:22.355Z,5.10
2023-03-25T11:57:56.265Z,4.60
2023-03-25T12:00:38.057Z,4.60
2023-03-25T12:03:07.235Z,4.87
2023-03-25T12:05:35.558Z,4.77
2023-03-25T12:11:05.627Z,5.27
2023-03-25T12:16:44.159Z,4.77
2023-03-25T12:19:17.513Z,5.53
2023-03-25T12:21:55.870Z,5.13
2023-03-25T12:24:32.656Z,5.30
2023-03-25T12:27:11.362Z,5.70
2023-03-25T12:32:46.935Z,5.30
2023-03-25T12:35:24.461Z,5.13
2023-03-25T12:38:29.505Z,4.90
2023-03-25T12:41:06.660Z,4.80
2023-03-25T12:47:00.502Z,7.63
2023-03-25T12:49:46.137Z,7.50
2023-03-25T12:55:26.349Z,7.37
2023-03-25T13:00:59.756Z,6.67
2023-03-25T13:03:57.149Z,5.97
2023-03-25T13:06:31.180Z,5.97
2023-03-25T13:09:02.084Z,4.83
2023-03-25T13:14:24.978Z,3.90
2023-03-25T13:16:55.599Z,4.40
2023-03-25T13:19:25.609Z,4.10
2023-03-25T13:21:57.289Z,4.30
2023-03-25T13:24:30.147Z,3.67
2023-03-25T13:26:57.796Z,4.00
2023-03-25T13:29:28.997Z,4.47
2023-03-25T13:31:58.490Z,3.80
2023-03-25T13:34:29.848Z,4.23
2023-03-25T13:37:06.724Z,4.40
2023-03-25T13:39:47.917Z,4.60
2023-03-25T13:42:19.312Z,3.63
2023-03-25T13:44:47.721Z,3.50
2023-03-25T13:47:19.316Z,4.43
2023-03-25T13:49:50.871Z,4.17
2023-03-25T13:52:19.958Z,4.40
2023-03-25T13:54:50.344Z,4.67
2023-03-25T14:00:48.501Z,4.87
2023-03-25T14:06:46.189Z,4.20
2023-03-25T14:09:42.235Z,4.33
2023-03-25T14:15:12.669Z,4.53
2023-03-25T14:17:40.783Z,4.20
2023-03-25T14:20:12.313Z,4.03
2023-03-25T14:22:43.861Z,4.17
2023-03-25T14:25:20.911Z,4.60
2023-03-25T14:27:49.999Z,3.97
2023-03-25T14:30:21.449Z,3.90
2023-03-25T14:32:49.632Z,3.83
2023-03-25T14:35:49.086Z,4.43
2023-03-25T14:38:52.636Z,4.20
2023-03-25T14:41:30.245Z,4.43
2023-03-25T14:44:12.078Z,4.60
2023-03-25T14:49:53.944Z,3.60
2023-03-25T14:52:28.331Z,3.63
2023-03-25T14:58:01.713Z,3.47
2023-03-25T15:00:34.106Z,3.80
2023-03-25T15:03:04.834Z,3.87
2023-03-25T15:05:33.354Z,4.03
2023-03-25T15:08:11.072Z,3.63
2023-03-25T15:10:40.599Z,3.83
2023-03-25T15:13:11.060Z,3.57
2023-03-25T15:22:19.458Z,3.40
2023-03-25T15:24:52.650Z,3.83
2023-03-25T15:27:42.441Z,3.40
2023-03-25T15:30:20.258Z,4.60
2023-03-25T15:35:59.808Z,3.53
2023-03-25T15:38:50.354Z,3.80
2023-03-25T15:41:32.749Z,3.77
2023-03-25T15:47:26.436Z,3.57
2023-03-25T15:53:42.449Z,3.83
2023-03-25T15:56:13.237Z,3.87
2023-03-25T15:58:45.654Z,4.53
2023-03-25T16:01:17.785Z,3.87
2023-03-25T16:03:46.331Z,4.13
2023-03-25T16:06:40.183Z,3.80
2023-03-25T16:09:09.281Z,3.33
2023-03-25T16:11:43.274Z,4.07
2023-03-25T16:17:01.910Z,3.10
2023-03-25T16:22:32.732Z,3.40
2023-03-25T16:25:02.635Z,3.37
2023-03-25T16:27:35.548Z,3.00
2023-03-25T16:30:03.647Z,3.37
2023-03-25T16:35:29.845Z,3.30
2023-03-25T16:37:58.145Z,3.30
2023-03-25T16:40:29.146Z,3.67
2023-03-25T16:43:05.242Z,4.03
2023-03-25T16:45:33.129Z,3.57
2023-03-25T16:51:06.748Z,3.90
2023-03-25T16:53:35.372Z,4.47
2023-03-25T16:56:05.632Z,4.07
2023-03-25T16:58:34.890Z,3.10
2023-03-25T17:04:10.639Z,3.00
2023-03-25T17:06:39.789Z,2.57
2023-03-25T17:09:11.835Z,2.57
2023-03-25T17:11:39.484Z,2.80
2023-03-25T17:14:14.889Z,3.07
2023-03-25T17:16:43.001Z,2.97
2023-03-25T17:19:14.049Z,2.80
2023-03-25T17:24:38.837Z,2.80
2023-03-25T17:27:08.216Z,2.77
2023-03-25T17:29:50.078Z,2.80
2023-03-25T17:32:19.246Z,2.70
2023-03-25T17:37:54.852Z,2.53
2023-03-25T17:40:23.720Z,2.30
2023-03-25T17:42:51.127Z,2.83
2023-03-25T17:45:21.934Z,2.57
2023-03-25T17:47:51.284Z,2.67
2023-03-25T17:53:23.505Z,2.70
2023-03-25T17:55:51.678Z,2.37
2023-03-25T17:58:20.265Z,2.33
2023-03-25T18:00:49.811Z,2.10
2023-03-25T18:03:18.827Z,2.33
2023-03-25T18:05:50.781Z,2.23
2023-03-25T18:08:18.443Z,1.80
2023-03-25T18:10:46.039Z,3.10
2023-03-25T18:16:03.091Z,2.03
2023-03-25T18:18:30.648Z,2.50
2023-03-25T18:20:59.703Z,2.23
2023-03-25T18:23:28.226Z,2.20
2023-03-25T18:28:54.676Z,2.10
2023-03-25T18:31:23.483Z,2.40
2023-03-25T18:33:51.452Z,2.20
2023-03-25T18:36:19.238Z,2.83
2023-03-25T18:38:47.619Z,2.00
2023-03-25T18:41:40.183Z,2.13
2023-03-25T18:44:07.628Z,2.63
2023-03-25T18:49:25.184Z,1.93
2023-03-25T18:51:53.088Z,1.90
2023-03-25T18:54:20.587Z,2.33
2023-03-25T18:56:48.076Z,1.90
2023-03-25T18:59:17.419Z,1.80
2023-03-25T19:01:45.192Z,2.50
2023-03-25T19:04:18.082Z,2.20
2023-03-25T19:06:48.101Z,2.30
2023-03-25T19:09:18.624Z,2.33
2023-03-25T19:14:48.659Z,2.17
2023-03-25T19:17:16.158Z,2.13
2023-03-25T19:19:43.739Z,2.30
2023-03-25T19:22:16.145Z,2.40
2023-03-25T19:24:43.680Z,3.13
2023-03-25T19:27:11.369Z,3.10
2023-03-25T19:29:39.213Z,2.37
2023-03-25T19:32:06.967Z,2.00
2023-03-25T19:37:26.607Z,2.73
2023-03-25T19:39:55.680Z,2.17
2023-03-25T19:45:21.990Z,2.20
2023-03-25T19:47:52.031Z,2.50
2023-03-25T19:50:21.288Z,2.30
2023-03-25T19:52:51.433Z,2.77
2023-03-25T19:55:19.954Z,2.60
2023-03-25T19:57:47.421Z,3.10
2023-03-25T20:00:17.736Z,3.00
2023-03-25T20:02:46.828Z,2.80
2023-03-25T20:08:14.025Z,2.80
2023-03-25T20:10:41.913Z,3.13
2023-03-25T20:13:09.911Z,2.80
2023-03-25T20:15:37.356Z,3.03
2023-03-25T20:18:06.521Z,3.60
2023-03-25T20:20:33.978Z,3.00
2023-03-25T20:23:01.419Z,3.00
2023-03-25T20:25:30.283Z,3.27
2023-03-25T20:27:57.726Z,3.23
2023-03-25T20:30:25.791Z,2.73
2023-03-25T20:32:53.279Z,2.83
2023-03-25T20:35:20.997Z,2.67
2023-03-25T20:37:49.641Z,2.60
2023-03-25T20:40:19.178Z,2.90
2023-03-25T20:42:49.780Z,3.00
2023-03-25T20:45:18.465Z,2.93
2023-03-25T20:47:46.196Z,2.87
2023-03-25T20:50:16.197Z,2.97
2023-03-25T20:52:43.794Z,3.13
2023-03-25T20:55:12.019Z,2.90
2023-03-25T21:00:39.213Z,2.70
2023-03-25T21:03:06.846Z,2.90
2023-03-25T21:05:34.342Z,3.50
2023-03-25T21:08:01.776Z,2.87
2023-03-25T21:10:29.225Z,2.90
2023-03-25T21:12:56.645Z,2.80
2023-03-25T21:15:24.111Z,2.87
2023-03-25T21:20:50.397Z,3.33
2023-03-25T21:23:18.339Z,2.80
2023-03-25T21:25:46.137Z,3.10
2023-03-25T21:31:09.701Z,3.13
2023-03-25T21:36:45.328Z,3.00
2023-03-25T21:39:12.900Z,3.17
2023-03-25T21:41:40.352Z,3.30
2023-03-25T21:44:08.162Z,3.10
2023-03-25T21:46:36.671Z,2.93
2023-03-25T21:49:04.384Z,3.47
2023-03-25T21:51:32.146Z,3.27
2023-03-25T21:54:00.922Z,3.20
2023-03-25T21:59:25.851Z,3.90
2023-03-25T22:01:53.591Z,3.37
2023-03-25T22:04:21.114Z,3.50
2023-03-25T22:09:49.169Z,2.90
2023-03-25T22:12:16.719Z,3.70
2023-03-25T22:14:45.717Z,3.60
2023-03-25T22:17:13.187Z,3.03
2023-03-25T22:19:41.026Z,2.97
2023-03-25T22:22:10.948Z,3.17
2023-03-25T22:24:38.403Z,2.97
2023-03-25T22:27:07.170Z,3.70
2023-03-25T22:29:35.043Z,3.57
2023-03-25T22:35:05.415Z,3.87
2023-03-25T22:37:36.708Z,4.10
2023-03-25T22:40:08.360Z,4.00
2023-03-25T22:42:37.126Z,4.27
2023-03-25T22:45:06.397Z,4.10
2023-03-25T22:47:33.850Z,4.17
2023-03-25T22:50:01.312Z,5.20
2023-03-25T22:52:28.931Z,4.30
2023-03-25T22:54:56.409Z,4.20
2023-03-25T22:57:23.934Z,4.00
2023-03-25T22:59:52.719Z,4.73
2023-03-25T23:02:20.303Z,3.87
2023-03-25T23:04:47.766Z,4.17
2023-03-25T23:07:15.286Z,4.10
2023-03-25T23:12:47.110Z,4.23
2023-03-25T23:18:18.032Z,4.60
2023-03-25T23:20:49.305Z,4.33
2023-03-25T23:23:17.479Z,4.10
2023-03-25T23:25:44.917Z,4.50
2023-03-25T23:28:12.388Z,4.47
2023-03-25T23:30:45.601Z,4.50
2023-03-25T23:33:13.067Z,4.53
2023-03-25T23:35:41.876Z,4.33
2023-03-25T23:38:09.341Z,4.10
2023-03-25T23:40:36.776Z,4.37
2023-03-25T23:45:55.316Z,4.80
2023-03-25T23:48:24.388Z,4.93
2023-03-25T23:50:53.258Z,4.40
2023-03-25T23:53:21.418Z,4.47
2023-03-25T23:55:51.501Z,4.67
2023-03-25T23:58:19.509Z,4.53
